createdAt,value
2023-03-17T00:25:33.932Z,46.9
2023-03-17T00:54:35.584Z,46.9
2023-03-17T01:23:37.639Z,46.88
2023-03-17T01:52:40.320Z,46.88
2023-03-17T02:21:37.969Z,46.86
2023-03-17T02:50:40.593Z,46.86
2023-03-17T03:19:40.184Z,46.86
2023-03-17T03:48:35.422Z,46.84
2023-03-17T04:17:34.356Z,46.84
2023-03-17T04:46:34.230Z,46.83
2023-03-17T05:15:35.292Z,46.83
2023-03-17T05:44:38.139Z,47.89
2023-03-17T06:13:37.733Z,49.05
2023-03-17T06:42:32.904Z,48.13
2023-03-17T07:11:32.690Z,47.69
2023-03-17T07:40:36.069Z,47.32
2023-03-17T08:09:13.084Z,47.24
2023-03-17T08:38:01.058Z,47.19
2023-03-17T09:07:09.515Z,47.15
2023-03-17T09:35:32.497Z,47.11
2023-03-17T10:04:19.847Z,47.07
2023-03-17T10:33:03.337Z,47.04
2023-03-17T11:01:54.667Z,47.02
2023-03-17T11:30:53.501Z,46.99
2023-03-17T11:59:21.710Z,46.97
2023-03-17T12:28:18.784Z,46.95
2023-03-17T12:57:03.831Z,46.95
2023-03-17T13:26:05.790Z,46.95
2023-03-17T13:55:01.298Z,46.94
2023-03-17T14:24:04.100Z,46.94
2023-03-17T14:52:49.240Z,46.93
2023-03-17T15:21:42.455Z,46.93
2023-03-17T15:50:28.053Z,46.92
2023-03-17T16:19:27.852Z,46.92
2023-03-17T16:48:05.958Z,46.93
2023-03-17T17:16:46.635Z,46.92
2023-03-17T17:45:27.952Z,46.94
2023-03-17T18:14:15.336Z,46.95
2023-03-17T18:42:51.341Z,46.94
2023-03-17T19:11:31.788Z,46.96
2023-03-17T19:40:04.395Z,46.96
2023-03-17T20:08:52.209Z,46.96
2023-03-17T20:37:36.661Z,46.96
2023-03-17T21:06:26.800Z,46.99
2023-03-17T21:34:59.671Z,46.97
2023-03-17T22:03:35.646Z,47
2023-03-17T22:32:15.398Z,46.98
2023-03-17T23:01:06.572Z,47
2023-03-17T23:29:48.989Z,46.99
2023-03-17T23:58:38.070Z,47.02
